Pride of Baltimore II — WUW2120 — position and weather

sailwx.info

Track history (hours):
 
Tides and Currents Weather Stations Pressure Air Temp Water Temp Dewpoint Dewpoint Depression Visibility Wind Speed Wind Dir Waves Ship Positions

Pride of Baltimore II (United States)

Reproduction of an 1812-era Baltimore Clipper privateer.

Ship's website: http://www.marylandspride.org/

Owner: PRIDE OF BALTIMORE INC, BALTIMORE, MD. More information available from US FCC via Universal Licensing System and Coast Guard Vessel Documentation Center.

Last reported at 2014-Dec-20 12:33 UTC. Time now 2014-Dec-20 12:59 UTC.
Position N 39°06' W 076°24'.

Type: Sailing vessel. MMSI: 303302000.

Date/timePositionNaut miles runAvg speedWind from/ knotsBaromVisibWave heightAir tempDewpointWater temp
2014-Dec-20 12:33N 39°06' W 076°24'7 7.2
2014-Dec-20 11:33N 38°58' W 076°23'7 7.0
2014-Dec-20 10:33N 38°52' W 076°25'49 6.9
2014-Dec-20 03:29N 38°03' W 076°14'  
2014-Dec-12 02:18N 38°07' W 076°15'46 7.5
2014-Dec-11 20:11N 38°52' W 076°26'5 7.6
2014-Dec-11 19:33N 38°56' W 076°24'7 7.5
2014-Dec-11 18:33N 39°04' W 076°23'8 7.5
2014-Dec-11 17:33N 39°11' W 076°26'8 7.6
2014-Dec-11 16:33N 39°15' W 076°34'3 2.5
2014-Dec-11 15:32N 39°17' W 076°36'0 0.2
2014-Dec-11 14:33N 39°17' W 076°36'2 1.6
2014-Dec-11 13:28N 39°16' W 076°34'0 0.0
2014-Dec-11 12:28N 39°16' W 076°34'0 0.0
2014-Dec-11 11:29N 39°16' W 076°34'0 0.0
2014-Dec-11 10:26N 39°16' W 076°34'0 0.0
2014-Dec-11 09:32N 39°16' W 076°34'0 0.0
2014-Dec-11 08:28N 39°16' W 076°34'0 0.0
2014-Dec-11 07:32N 39°16' W 076°34'0 0.0
2014-Dec-11 06:28N 39°16' W 076°34'0 0.0
2014-Dec-11 05:28N 39°16' W 076°34'0 0.0
2014-Dec-11 03:28N 39°16' W 076°34'0 0.0
2014-Dec-11 02:22N 39°16' W 076°34'0 0.0
2014-Dec-11 00:28N 39°16' W 076°34'0 0.0
2014-Dec-10 23:16N 39°16' W 076°34'0 0.0
2014-Dec-10 22:22N 39°16' W 076°34'0 0.0
2014-Dec-10 21:28N 39°16' W 076°34'0 0.0
2014-Dec-10 20:28N 39°16' W 076°34'0 0.0
2014-Dec-10 19:28N 39°16' W 076°34'0 0.0
2014-Dec-10 18:22N 39°16' W 076°34'0 0.0
2014-Dec-10 16:16N 39°16' W 076°34'0 0.0
2014-Dec-10 15:07N 39°16' W 076°34'0 0.0
2014-Dec-10 14:31N 39°16' W 076°34'0 0.0
2014-Dec-10 13:31N 39°16' W 076°34'  
Track history (hours):
 
Tides and Currents Weather Stations Pressure Air Temp Water Temp Dewpoint Dewpoint Depression Visibility Wind Speed Wind Dir Waves Ship Positions

Pride of Baltimore II (United States)

Reproduction of an 1812-era Baltimore Clipper privateer.

Ship's website: http://www.marylandspride.org/

Owner: PRIDE OF BALTIMORE INC, BALTIMORE, MD. More information available from US FCC via Universal Licensing System and Coast Guard Vessel Documentation Center.

Last reported at 2014-Dec-20 12:33 UTC. Time now 2014-Dec-20 12:59 UTC.
Position N 39°06' W 076°24'.

Type: Sailing vessel. MMSI: 303302000.

Date/timePositionNaut miles runAvg speedWind from/ knotsBaromVisibWave heightAir tempDewpointWater temp
2014-Dec-20 12:33N 39°06' W 076°24'7 7.2
2014-Dec-20 11:33N 38°58' W 076°23'7 7.0
2014-Dec-20 10:33N 38°52' W 076°25'49 6.9
2014-Dec-20 03:29N 38°03' W 076°14'  
2014-Dec-12 02:18N 38°07' W 076°15'46 7.5
2014-Dec-11 20:11N 38°52' W 076°26'5 7.6
2014-Dec-11 19:33N 38°56' W 076°24'7 7.5
2014-Dec-11 18:33N 39°04' W 076°23'8 7.5
2014-Dec-11 17:33N 39°11' W 076°26'8 7.6
2014-Dec-11 16:33N 39°15' W 076°34'3 2.5
2014-Dec-11 15:32N 39°17' W 076°36'0 0.2
2014-Dec-11 14:33N 39°17' W 076°36'2 1.6
2014-Dec-11 13:28N 39°16' W 076°34'0 0.0
2014-Dec-11 12:28N 39°16' W 076°34'0 0.0
2014-Dec-11 11:29N 39°16' W 076°34'0 0.0
2014-Dec-11 10:26N 39°16' W 076°34'0 0.0
2014-Dec-11 09:32N 39°16' W 076°34'0 0.0
2014-Dec-11 08:28N 39°16' W 076°34'0 0.0
2014-Dec-11 07:32N 39°16' W 076°34'0 0.0
2014-Dec-11 06:28N 39°16' W 076°34'0 0.0
2014-Dec-11 05:28N 39°16' W 076°34'0 0.0
2014-Dec-11 03:28N 39°16' W 076°34'0 0.0
2014-Dec-11 02:22N 39°16' W 076°34'0 0.0
2014-Dec-11 00:28N 39°16' W 076°34'0 0.0
2014-Dec-10 23:16N 39°16' W 076°34'0 0.0
2014-Dec-10 22:22N 39°16' W 076°34'0 0.0
2014-Dec-10 21:28N 39°16' W 076°34'0 0.0
2014-Dec-10 20:28N 39°16' W 076°34'0 0.0
2014-Dec-10 19:28N 39°16' W 076°34'0 0.0
2014-Dec-10 18:22N 39°16' W 076°34'0 0.0
2014-Dec-10 16:16N 39°16' W 076°34'0 0.0
2014-Dec-10 15:07N 39°16' W 076°34'0 0.0
2014-Dec-10 14:31N 39°16' W 076°34'0 0.0
2014-Dec-10 13:31N 39°16' W 076°34'  

Dump ship's entire track history